ADDS METAR Data INFO
IDs: Format: Raw Decoded Include TAF

Data at: 0731 UTC 18 Oct 2017

KO86 180715Z AUTO 27003KT 10SM 07/M01 A3016 RMK AO1
KO86 180655Z AUTO 00000KT 10SM 08/M01 A3016 RMK AO1
KO86 180635Z AUTO 29004KT 10SM 08/M01 A3016 RMK AO1
KO86 180615Z AUTO 28004KT 10SM 08/M01 A3016 RMK AO1
KO86 180555Z AUTO 26003KT 10SM 08/M01 A3016 RMK AO1
KO86 180535Z AUTO 00000KT 10SM 08/M01 A3016 RMK AO1
KO86 180515Z AUTO 00000KT 10SM 09/M01 A3015 RMK AO1
KO86 180455Z AUTO 31003KT 10SM 09/00 A3015 RMK AO1
KO86 180435Z AUTO 29003KT 10SM 10/00 A3014 RMK AO1
KO86 180415Z AUTO 27004KT 10SM 11/00 A3014 RMK AO1
KO86 180355Z AUTO 00000KT 10SM 12/00 A3013 RMK AO1
KO86 180335Z AUTO 33004KT 10SM 13/00 A3013 RMK AO1
KO86 180315Z AUTO 28003KT 10SM 13/00 A3013 RMK AO1
KO86 180255Z AUTO 00000KT 10SM 14/00 A3012 RMK AO1
KO86 180235Z AUTO 00000KT 10SM 15/00 A3012 RMK AO1
KO86 180215Z AUTO 27006KT 10SM 17/00 A3011 RMK AO1
KO86 180155Z AUTO 28005KT 10SM 18/00 A3010 RMK AO1
KO86 180135Z AUTO 28005KT 10SM 19/00 A3010 RMK AO1
KO86 180115Z AUTO 27005KT 10SM 20/00 A3009 RMK AO1
KO86 180055Z AUTO 00000KT 10SM 19/02 A3008 RMK AO1
KO86 180035Z AUTO 00000KT 10SM 21/00 A3008 RMK AO1
KO86 180015Z AUTO 00000KT 10SM 25/M03 A3009 RMK AO1
KO86 172355Z AUTO 19006KT 10SM 25/M02 A3009 RMK AO1
KO86 172335Z AUTO 19004KT 10SM 26/M03 A3009 RMK AO1
KO86 172315Z AUTO 18004KT 10SM 26/M03 A3010 RMK AO1
KO86 172255Z AUTO 16005KT 10SM 25/00 A3009 RMK AO1
KO86 172235Z AUTO 00000KT 10SM 25/00 A3010 RMK AO1
KO86 172215Z AUTO 00000KT 10SM 24/M01 A3010 RMK AO1
KO86 172155Z AUTO 15003KT 10SM 24/00 A3011 RMK AO1
KO86 172135Z AUTO 00000KT 10SM 24/00 A3012 RMK AO1
KO86 172115Z AUTO 15003KT 10SM 23/00 A3012 RMK AO1
KO86 172055Z AUTO 14003KT 10SM 23/00 A3013 RMK AO1
KO86 172035Z AUTO 00000KT 10SM 22/M01 A3014 RMK AO1
KO86 172015Z AUTO 00000KT 10SM 22/M03 A3015 RMK AO1
KO86 171955Z AUTO 00000KT 10SM 20/M03 A3016 RMK AO1
KO86 171935Z AUTO 00000KT 10SM 19/M02 A3018 RMK AO1
KO86 171915Z AUTO 00000KT 10SM 18/M03 A3018 RMK AO1
KO86 171855Z AUTO 00000KT 10SM 17/00 A3019 RMK AO1
KO86 171835Z AUTO 00000KT 10SM 16/M03 A3020 RMK AO1
KO86 171815Z AUTO 00000KT 10SM 14/M03 A3021 RMK AO1
KO86 171755Z AUTO 00000KT 10SM 13/00 A3022 RMK AO1
KO86 171735Z AUTO 00000KT 10SM 13/00 A3023 RMK AO1
KO86 171715Z AUTO 07003KT 10SM 12/00 A3023 RMK AO1
KO86 171655Z AUTO 00000KT 10SM 11/01 A3023 RMK AO1
KO86 171635Z AUTO 00000KT 10SM 10/00 A3023 RMK AO1
KO86 171615Z AUTO 00000KT 10SM 09/00 A3023 RMK AO1
KO86 171555Z AUTO 00000KT 10SM 08/M01 A3023 RMK AO1
KO86 171535Z AUTO 00000KT 10SM 06/M02 A3023 RMK AO1
KO86 171515Z AUTO 00000KT 10SM 05/M02 A3022 RMK AO1
KO86 171455Z AUTO 00000KT 10SM 04/M02 A3021 RMK AO1
KO86 171435Z AUTO 00000KT 10SM 04/M02 A3020 RMK AO1
KO86 171415Z AUTO 29003KT 10SM 04/M02 A3020 RMK AO1
KO86 171355Z AUTO 00000KT 10SM 04/M02 A3019 RMK AO1
KO86 171335Z AUTO 00000KT 10SM 04/M02 A3019 RMK AO1
KO86 171315Z AUTO 00000KT 10SM 05/M02 A3019 RMK AO1
KO86 171255Z AUTO 00000KT 10SM 04/M02 A3019 RMK AO1
KO86 171235Z AUTO 00000KT 10SM 05/M02 A3019 RMK AO1
KO86 171215Z AUTO 28003KT 10SM 05/M02 A3019 RMK AO1
KO86 171155Z AUTO 27003KT 10SM 05/M02 A3018 RMK AO1
KO86 171135Z AUTO 00000KT 10SM 05/M02 A3018 RMK AO1
KO86 171115Z AUTO 27003KT 10SM 06/M02 A3018 RMK AO1
KO86 171055Z AUTO 00000KT 10SM 06/M02 A3018 RMK AO1
KO86 171035Z AUTO 28003KT 10SM 07/M02 A3019 RMK AO1
KO86 171015Z AUTO 00000KT 10SM 07/M02 A3019 RMK AO1
KO86 170955Z AUTO 00000KT 10SM 07/M02 A3020 RMK AO1
KO86 170935Z AUTO 00000KT 10SM 07/M02 A3019 RMK AO1
KO86 170915Z AUTO 00000KT 10SM 07/M02 A3020 RMK AO1
KO86 170855Z AUTO 00000KT 10SM 07/M02 A3020 RMK AO1
KO86 170835Z AUTO 00000KT 10SM 07/M02 A3020 RMK AO1
KO86 170815Z AUTO 26003KT 10SM 07/M02 A3019 RMK AO1
KO86 170755Z AUTO 29003KT 10SM 07/M02 A3019 RMK AO1
KO86 170735Z AUTO 28003KT 10SM 07/M02 A3019 RMK AO1
KO86 170715Z AUTO 27003KT 10SM 07/M02 A3019 RMK AO1
KO86 170655Z AUTO 00000KT 10SM 07/M02 A3019 RMK AO1
KO86 170635Z AUTO 27003KT 10SM 08/M02 A3019 RMK AO1
KO86 170615Z AUTO 27003KT 10SM 08/M02 A3019 RMK AO1
KO86 170555Z AUTO 29003KT 10SM 08/M02 A3018 RMK AO1
KO86 170535Z AUTO 28003KT 10SM 08/M02 A3018 RMK AO1
KO86 170515Z AUTO 28003KT 10SM 09/M03 A3018 RMK AO1
KO86 170455Z AUTO 28003KT 10SM 09/M02 A3018 RMK AO1
KO86 170435Z AUTO 28003KT 10SM 10/M02 A3017 RMK AO1
KO86 170415Z AUTO 28005KT 10SM 10/M02 A3017 RMK AO1
KO86 170355Z AUTO 27003KT 10SM 11/M02 A3016 RMK AO1
KO86 170335Z AUTO 25003KT 10SM 12/M02 A3016 RMK AO1
KO86 170315Z AUTO 00000KT 10SM 14/M02 A3016 RMK AO1
KO86 170255Z AUTO 00000KT 10SM 13/00 A3016 RMK AO1
KO86 170235Z AUTO 27003KT 10SM 16/M02 A3015 RMK AO1
KO86 170215Z AUTO 28004KT 10SM 14/00 A3014 RMK AO1
KO86 170155Z AUTO 29003KT 10SM 17/00 A3014 RMK AO1
KO86 170135Z AUTO 00000KT 10SM 18/00 A3014 RMK AO1
KO86 170115Z AUTO 00000KT 10SM 19/00 A3013 RMK AO1
KO86 170055Z AUTO 00000KT 10SM 19/04 A3013 RMK AO1
KO86 170035Z AUTO 00000KT 10SM 21/03 A3014 RMK AO1
KO86 170015Z AUTO 00000KT 10SM 24/02 A3014 RMK AO1
KO86 162355Z AUTO 00000KT 10SM 25/01 A3014 RMK AO1
KO86 162335Z AUTO 00000KT 10SM 27/M03 A3014 RMK AO1
KO86 162315Z AUTO 00000KT 10SM 26/00 A3015 RMK AO1
KO86 162255Z AUTO 00000KT 10SM 25/00 A3016 RMK AO1
KO86 162235Z AUTO 00000KT 10SM 26/M03 A3016 RMK AO1
KO86 162215Z AUTO 00000KT 10SM 25/M02 A3016 RMK AO1
KO86 162155Z AUTO 00000KT 10SM 25/M02 A3017 RMK AO1
KO86 162135Z AUTO 14003KT 10SM 24/M03 A3018 RMK AO1
KO86 162115Z AUTO 00000KT 10SM 23/M02 A3019 RMK AO1
KO86 162055Z AUTO 00000KT 10SM 22/M02 A3020 RMK AO1
KO86 162035Z AUTO 14003KT 10SM 21/M02 A3022 RMK AO1
KO86 162015Z AUTO 00000KT 10SM 20/M02 A3023 RMK AO1
KO86 161955Z AUTO 14003KT 10SM 19/M03 A3024 RMK AO1
KO86 161935Z AUTO 00000KT 10SM 18/M03 A3025 RMK AO1